Flight Track Log - Related Links

Times and Time Zones

All times are in EDT time to prevent confusion due to time zone crossing. See the QXE2409 flight status page for this flight to view local times or setup timezone preferences in your user account.


Time Position Orientation Groundspeed Altitude Reporting Facility
EDT Latitude Longitude Course Direction KTS MPH feet Rate Location/Type
Wed 04:11:42 PM 49.1667 -123.1167 169° South 180 207 2,100  Level Vancouver Center
Wed 04:12:42 PM 49.1333 -123.0333 121° Southeast 220 253 4,000 1,793 Climbing Vancouver Center
Wed 04:14:26 PM 49.0406 -123.0189 174° South 263 303 7,000 1,756 Climbing Seattle Center
Wed 04:15:26 PM 48.9628 -123.0144 178° South 273 314 8,800 1,587 Climbing Seattle Center
Wed 04:16:00 PM 48.8188 -122.9914 162° South  Level Estimated
Wed 04:16:27 PM 48.8833 -123.0047 175° South 286 329 10,200  Level Seattle Center
Wed 04:17:00 PM 48.7652 -122.9640 169° South  Level Estimated
Wed 04:18:29 PM 48.7242 -123.0142 182° South 288 331 13,500  Level Seattle Center
Wed 04:19:30 PM 48.6447 -123.0181 182° South 289 333 14,900 738 Climbing Seattle Center
Wed 04:20:31 PM 48.5575 -122.9994 172° South 315 362 15,000 49 Climbing Seattle Center
Wed 04:21:32 PM 48.4478 -122.9625 167° South 331 381 15,000  Level Seattle Center
Wed 04:22:33 PM 48.3519 -122.9383 170° South 346 398 15,000  Level Seattle Center
Wed 04:23:34 PM 48.2578 -122.9114 169° South 338 389 15,000  Level Seattle Center
Wed 04:23:53 PM 48.2267 -122.9044 172° South 332 382 15,000  Level Seattle Center
Wed 04:24:17 PM 48.1883 -122.8922 168° South 334 384 15,000  Level Seattle Center
Wed 04:24:35 PM 48.1706 -122.8861 167° South 332 382 15,000  Level Seattle Center
Wed 04:25:18 PM 48.0956 -122.8667 170° South 338 389 15,000 -200 Level Seattle Center
Wed 04:25:35 PM 48.0789 -122.8611 167° South 337 388 14,800 -1,433 Descending Seattle Center
Wed 04:26:25 PM 48.0100 -122.7978 148° Southeast 314 361 13,400 -1,600 Descending Seattle Center
Wed 04:27:20 PM 47.9653 -122.7067 126° Southeast 291 335 12,000 -1,333 Descending Seattle Center
Wed 04:27:37 PM 47.9592 -122.6939 126° Southeast 294 338 11,800 -1,522 Descending Seattle Center
Wed 04:28:27 PM 47.9103 -122.6014 128° Southeast 295 339 10,300 -1,636 Descending Seattle Center
Wed 04:29:16 PM 47.8725 -122.5297 128° Southeast 290 334 9,100 -1,250 Descending Seattle Center
Wed 04:29:39 PM 47.8594 -122.5089 133° Southeast 284 327 8,800 -1,522 Descending Seattle Center
Wed 04:30:23 PM 47.8081 -122.4497 142° Southeast 260 299 7,400 -1,967 Descending Seattle Center
Wed 04:30:40 PM 47.7875 -122.4294 146° Southeast 264 304 6,800 -2,073 Descending Seattle Center
Wed 04:31:18 PM 47.7503 -122.3961 149° Southeast 264 304 5,500 -1,869 Descending Seattle Center
Wed 04:31:41 PM 47.7256 -122.3708 145° Southeast 266 306 4,900 -1,727 Descending Seattle Center
Wed 04:32:24 PM 47.6828 -122.3314 148° Southeast 262 302 3,600 -1,574 Descending Seattle Center
Wed 04:32:42 PM 47.6650 -122.3136 146° Southeast 259 298 3,300 -393 Descending Seattle Center
Wed 04:33:25 PM 47.6178 -122.3114 178° South 241 277 3,200 -587 Descending Seattle Center
Wed 04:34:14 PM 47.5669 -122.3131 181° South 208 239 2,400 -911 Descending Seattle Center
Wed 04:34:44 PM 47.5428 -122.3119 178° South 205 236 2,000 -716 Descending Seattle Center
Wed 04:35:21 PM 47.5175 -122.3108 178° South 143 165 1,600 -689 Descending Seattle Center
Wed 04:35:45 PM 47.5014 -122.3108 180° South 141 162 1,300 -787 Descending Seattle Center
Wed 04:36:22 PM 47.4819 -122.3108 180° South 105 121 800 -689 Descending Seattle Center
Wed 04:36:46 PM 47.4703 -122.3114 182° South 115 132 600 -282 Descending Seattle Center
Wed 04:37:47 PM 47.4394 -122.3128 182° South 113 130 400 -197 Descending Seattle Center

Login

Don't have an account? Register now (free) for customized features, flight alerts, and more!